Time;durP1;ratioP1;P1;durP2;ratioP2;P2;SDS_P1;SDS_P2;PMS_P1;PMS_P2;Temp;Humidity;BMP_temperature;BMP_pressure;BME280_temperature;BME280_humidity;BME280_pressure;Samples;Min_cycle;Max_cycle;Signal;HPM_P1;HPM_P2
2022/04/18 00:00:40;;;;;;;0.40;0.40;;;8.60;99.90;;;;;;4429764;32;20088;-68
2022/04/18 00:03:06;;;;;;;0.37;0.37;;;8.60;99.40;;;;;;4430470;32;20576;-69
2022/04/18 00:05:31;;;;;;;0.47;0.47;;;8.60;99.50;;;;;;4428286;32;20074;-68
2022/04/18 00:07:57;;;;;;;0.65;0.60;;;8.60;99.60;;;;;;4427623;32;20447;-69
2022/04/18 00:10:23;;;;;;;2.20;0.68;;;8.40;99.90;;;;;;4427998;32;20126;-68
2022/04/18 00:12:49;;;;;;;0.45;0.45;;;8.10;99.90;;;;;;4426927;32;20062;-68
2022/04/18 00:15:14;;;;;;;0.60;0.55;;;7.90;99.90;;;;;;4430964;32;20086;-68
2022/04/18 00:17:40;;;;;;;0.75;0.62;;;7.70;99.90;;;;;;4428693;32;20088;-68
2022/04/18 00:20:06;;;;;;;0.50;0.50;;;7.80;99.90;;;;;;4428882;32;20081;-69
2022/04/18 00:22:32;;;;;;;0.30;0.30;;;7.90;99.90;;;;;;4427856;32;20070;-68
2022/04/18 00:24:57;;;;;;;1.05;1.00;;;8.00;99.90;;;;;;4427709;32;20149;-68
2022/04/18 00:27:23;;;;;;;1.00;0.93;;;8.00;99.90;;;;;;4427939;32;20093;-68
2022/04/18 00:29:49;;;;;;;1.27;0.73;;;7.80;99.90;;;;;;4430654;32;20454;-68
2022/04/18 00:32:15;;;;;;;0.40;0.40;;;7.70;99.90;;;;;;4429790;32;20089;-68
2022/04/18 00:34:41;;;;;;;0.50;0.50;;;7.50;99.90;;;;;;4427331;32;20509;-68
2022/04/18 00:37:06;;;;;;;2.72;1.33;;;7.30;99.90;;;;;;4427380;32;20138;-68
2022/04/18 00:39:32;;;;;;;0.60;0.60;;;7.20;99.90;;;;;;4427183;32;20086;-68
2022/04/18 00:41:59;;;;;;;0.50;0.50;;;7.40;99.90;;;;;;4425104;32;20188;-68
2022/04/18 00:44:25;;;;;;;1.85;1.40;;;7.60;99.90;;;;;;4429393;32;20068;-68
2022/04/18 00:46:50;;;;;;;6.45;0.90;;;7.80;99.90;;;;;;4428424;32;20535;-68
2022/04/18 00:49:16;;;;;;;0.85;0.85;;;7.80;99.90;;;;;;4428952;32;20084;-68
2022/04/18 00:51:41;;;;;;;2.28;1.17;;;7.90;99.90;;;;;;4428081;32;20077;-68
2022/04/18 00:54:10;;;;;;;4.97;1.23;;;7.80;99.90;;;;;;4429287;32;20454;-68
2022/04/18 00:56:35;;;;;;;0.73;0.73;;;7.70;99.90;;;;;;4429834;32;20060;-68
2022/04/18 00:59:01;;;;;;;0.82;0.82;;;7.60;99.90;;;;;;4426400;32;20476;-67
2022/04/18 01:01:27;;;;;;;0.65;0.60;;;7.60;99.90;;;;;;4427441;32;20061;-68
2022/04/18 01:03:53;;;;;;;0.65;0.65;;;7.60;99.90;;;;;;4427676;32;20142;-68
2022/04/18 01:06:19;;;;;;;1.48;1.00;;;7.50;99.90;;;;;;4431884;32;20057;-68
2022/04/18 01:08:47;;;;;;;3.75;1.33;;;7.40;99.90;;;;;;4430850;32;20084;-68
2022/04/18 01:11:13;;;;;;;6.50;1.17;;;7.30;99.90;;;;;;4428545;32;20125;-70
2022/04/18 01:13:40;;;;;;;8.63;1.42;;;7.30;99.90;;;;;;4427627;32;20072;-68
2022/04/18 01:16:06;;;;;;;4.50;1.62;;;7.30;99.90;;;;;;4432595;32;20085;-68
2022/04/18 01:18:31;;;;;;;1.02;0.85;;;7.30;99.90;;;;;;4432587;32;20085;-68
2022/04/18 01:20:57;;;;;;;6.80;0.88;;;7.20;99.90;;;;;;4432009;32;20065;-68
2022/04/18 01:23:22;;;;;;;1.27;1.05;;;7.30;99.90;;;;;;4432249;32;20085;-68
2022/04/18 01:29:05;;;;;;;0.82;0.82;;;7.10;99.90;;;;;;4428555;32;20117;-68
2022/04/18 01:31:18;;;;;;;3.00;1.45;;;7.10;99.90;;;;;;4428111;32;20090;-68
2022/04/18 01:33:44;;;;;;;2.22;1.25;;;7.10;99.90;;;;;;4433207;32;20124;-69
2022/04/18 01:36:09;;;;;;;1.67;1.40;;;7.00;99.90;;;;;;4429966;32;20072;-68
2022/04/18 01:38:35;;;;;;;1.05;0.82;;;7.10;99.90;;;;;;4430631;32;20176;-69
2022/04/18 01:41:00;;;;;;;1.27;1.12;;;6.90;99.90;;;;;;4430501;32;20082;-69
2022/04/18 01:43:25;;;;;;;2.92;1.52;;;6.90;99.90;;;;;;4427094;32;20097;-69
2022/04/18 01:45:51;;;;;;;1.17;1.00;;;6.80;99.90;;;;;;4429366;32;20061;-70
2022/04/18 01:48:16;;;;;;;2.37;1.27;;;6.80;99.90;;;;;;4430808;32;20088;-69
2022/04/18 01:50:42;;;;;;;0.50;0.50;;;6.70;99.90;;;;;;4428149;32;20275;-69
2022/04/18 01:53:07;;;;;;;2.50;1.17;;;6.70;99.90;;;;;;4431938;32;20077;-69
2022/04/18 01:55:33;;;;;;;0.75;0.75;;;6.70;99.90;;;;;;4429287;32;20081;-69
2022/04/18 01:57:58;;;;;;;2.20;0.85;;;6.70;99.90;;;;;;4427992;32;20069;-68
2022/04/18 02:00:24;;;;;;;0.77;0.77;;;6.70;99.90;;;;;;4430939;32;20073;-69
2022/04/18 02:02:49;;;;;;;3.80;1.52;;;6.70;99.90;;;;;;4433479;32;20132;-68
2022/04/18 02:05:15;;;;;;;0.98;0.60;;;6.70;99.90;;;;;;4427572;32;20441;-69
2022/04/18 02:07:40;;;;;;;1.60;0.80;;;6.70;99.90;;;;;;4433235;32;20064;-69
2022/04/18 02:10:06;;;;;;;0.95;0.70;;;6.60;99.90;;;;;;4429368;32;20077;-67
2022/04/18 02:12:33;;;;;;;1.67;0.75;;;6.50;99.90;;;;;;4429724;32;20493;-67
2022/04/18 02:14:58;;;;;;;1.33;1.20;;;6.40;99.90;;;;;;4429506;32;20081;-68
2022/04/18 02:17:24;;;;;;;0.82;0.82;;;6.10;99.90;;;;;;4434697;32;20490;-69
2022/04/18 02:19:49;;;;;;;0.98;0.90;;;5.90;99.90;;;;;;4429684;32;20084;-67
2022/04/18 02:22:15;;;;;;;0.55;0.55;;;5.90;99.90;;;;;;4431856;32;20073;-67
2022/04/18 02:24:40;;;;;;;0.73;0.73;;;6.10;99.90;;;;;;4430315;32;20069;-69
2022/04/18 02:27:08;;;;;;;1.75;1.23;;;6.10;99.90;;;;;;4431525;32;20185;-67
2022/04/18 02:29:33;;;;;;;0.82;0.70;;;6.00;99.90;;;;;;4432732;32;20073;-69
2022/04/18 02:32:59;;;;;;;0.55;0.55;;;6.10;99.90;;;;;;4430053;32;20074;-69
2022/04/18 02:34:45;;;;;;;0.55;0.55;;;6.20;99.90;;;;;;4428789;32;20083;-69
2022/04/18 02:37:10;;;;;;;3.78;1.05;;;6.10;99.90;;;;;;4429602;32;20073;-69
2022/04/18 02:39:36;;;;;;;0.47;0.47;;;6.10;99.90;;;;;;4429043;32;20140;-68
2022/04/18 02:42:02;;;;;;;0.68;0.68;;;6.10;99.90;;;;;;4429537;32;20516;-68
2022/04/18 02:44:28;;;;;;;0.65;0.65;;;6.20;99.90;;;;;;4432087;32;20084;-68
2022/04/18 02:46:53;;;;;;;1.17;0.75;;;6.10;99.90;;;;;;4431400;32;20073;-68
2022/04/18 02:49:19;;;;;;;0.37;0.37;;;6.20;99.90;;;;;;4430062;32;20499;-68
2022/04/18 02:51:44;;;;;;;0.45;0.45;;;6.20;99.90;;;;;;4432962;32;20119;-68
2022/04/18 02:54:10;;;;;;;0.52;0.52;;;6.10;99.90;;;;;;4429247;32;20434;-67
2022/04/18 02:56:35;;;;;;;0.50;0.50;;;6.10;99.90;;;;;;4432048;32;20504;-69
2022/04/18 02:59:01;;;;;;;2.33;0.70;;;6.00;99.90;;;;;;4430089;32;20089;-67
2022/04/18 03:01:26;;;;;;;0.50;0.50;;;5.90;99.90;;;;;;4432551;32;20563;-69
2022/04/18 03:03:52;;;;;;;0.55;0.55;;;6.00;99.90;;;;;;4430231;32;20138;-70
2022/04/18 03:06:17;;;;;;;0.47;0.47;;;5.80;99.90;;;;;;4427865;32;20064;-69
2022/04/18 03:08:43;;;;;;;0.73;0.60;;;5.50;99.90;;;;;;4429487;32;20808;-69
2022/04/18 03:11:10;;;;;;;0.70;0.70;;;5.40;99.90;;;;;;4429821;32;20065;-68
2022/04/18 03:13:37;;;;;;;0.75;0.75;;;5.30;99.90;;;;;;4432045;32;20469;-69
2022/04/18 03:16:04;;;;;;;1.10;1.00;;;5.10;99.90;;;;;;4428819;32;20065;-69
2022/04/18 03:18:30;;;;;;;2.85;1.15;;;5.00;99.90;;;;;;4428096;32;20085;-69
2022/04/18 03:20:57;;;;;;;0.50;0.50;;;4.90;99.90;;;;;;4434091;32;20127;-69
2022/04/18 03:23:22;;;;;;;2.05;1.30;;;5.00;99.90;;;;;;4428483;32;20057;-69
2022/04/18 03:25:48;;;;;;;0.43;0.43;;;5.20;99.90;;;;;;4427462;32;20085;-69
2022/04/18 03:28:13;;;;;;;1.23;0.95;;;5.40;99.90;;;;;;4429231;32;20068;-68
2022/04/18 03:30:39;;;;;;;0.40;0.40;;;5.40;99.90;;;;;;4433054;32;20093;-68
2022/04/18 03:33:04;;;;;;;0.57;0.57;;;5.40;99.90;;;;;;4430627;32;20069;-68
2022/04/18 03:35:30;;;;;;;26.70;0.82;;;5.50;99.90;;;;;;4432113;32;20551;-68
2022/04/18 03:39:57;;;;;;;0.60;0.60;;;5.50;99.90;;;;;;4428571;32;20084;-68
2022/04/18 03:40:42;;;;;;;0.50;0.50;;;5.50;99.90;;;;;;4423369;32;20085;-68
2022/04/18 03:43:08;;;;;;;0.70;0.70;;;5.50;99.90;;;;;;4427476;32;20065;-68
2022/04/18 03:45:33;;;;;;;0.55;0.55;;;5.40;99.90;;;;;;4428230;32;20547;-68
2022/04/18 03:47:59;;;;;;;0.70;0.70;;;5.20;99.90;;;;;;4431311;32;20066;-68
2022/04/18 03:50:24;;;;;;;1.20;1.10;;;5.00;99.90;;;;;;4427864;32;20090;-68
2022/04/18 03:52:50;;;;;;;0.77;0.62;;;5.00;99.90;;;;;;4428063;32;20068;-68
2022/04/18 03:55:16;;;;;;;19.30;2.55;;;4.90;99.90;;;;;;4428964;32;20128;-68
2022/04/18 03:57:42;;;;;;;0.57;0.57;;;5.00;99.90;;;;;;4425286;32;20078;-68
2022/04/18 04:00:09;;;;;;;0.47;0.47;;;5.00;99.90;;;;;;4428159;32;20069;-68
2022/04/18 04:02:34;;;;;;;2.47;0.98;;;4.90;99.90;;;;;;4428971;32;20073;-68
2022/04/18 04:05:00;;;;;;;0.88;0.85;;;4.90;99.90;;;;;;4428601;32;20131;-68
2022/04/18 04:07:26;;;;;;;0.60;0.60;;;5.00;99.90;;;;;;4431670;32;20097;-68
2022/04/18 04:09:53;;;;;;;3.10;1.20;;;5.10;99.90;;;;;;4431955;32;20085;-68
2022/04/18 04:12:23;;;;;;;7.68;0.88;;;5.10;99.90;;;;;;4426866;32;20109;-68
2022/04/18 04:14:51;;;;;;;0.68;0.68;;;5.20;99.90;;;;;;4427602;32;20085;-68
2022/04/18 04:17:17;;;;;;;0.62;0.60;;;5.30;99.90;;;;;;4427934;32;20172;-68
2022/04/18 04:19:44;;;;;;;0.65;0.65;;;5.30;99.90;;;;;;4427204;32;20492;-67
2022/04/18 04:22:09;;;;;;;0.75;0.75;;;5.10;99.90;;;;;;4430049;32;20069;-68
2022/04/18 04:24:35;;;;;;;0.43;0.43;;;5.10;99.90;;;;;;4426624;32;20096;-68
2022/04/18 04:27:00;;;;;;;0.57;0.57;;;5.20;99.90;;;;;;4429133;32;20078;-68
2022/04/18 04:29:26;;;;;;;0.50;0.50;;;5.10;99.90;;;;;;4432313;32;20092;-68
2022/04/18 04:31:51;;;;;;;0.40;0.40;;;5.00;99.90;;;;;;4431342;32;20231;-68
2022/04/18 04:34:17;;;;;;;0.60;0.60;;;5.30;99.90;;;;;;4430902;32;20136;-68
2022/04/18 04:36:42;;;;;;;0.85;0.85;;;5.40;99.90;;;;;;4429512;32;20061;-68
2022/04/18 04:39:08;;;;;;;0.43;0.43;;;5.40;99.90;;;;;;4426592;32;20088;-68
2022/04/18 04:41:35;;;;;;;1.08;0.82;;;5.50;99.90;;;;;;4435729;32;20073;-69
2022/04/18 04:44:01;;;;;;;0.60;0.60;;;5.40;99.90;;;;;;4431766;32;20080;-69
2022/04/18 04:46:27;;;;;;;0.40;0.40;;;5.50;99.90;;;;;;4432288;32;20466;-69
2022/04/18 04:48:53;;;;;;;1.08;0.40;;;5.40;99.90;;;;;;4430077;32;20077;-69
2022/04/18 04:51:19;;;;;;;1.40;0.62;;;5.40;99.90;;;;;;4429752;32;20069;-69
2022/04/18 04:53:44;;;;;;;5.28;1.02;;;5.60;99.90;;;;;;4431583;32;20061;-67
2022/04/18 04:56:10;;;;;;;0.45;0.45;;;5.60;99.90;;;;;;4429957;32;20651;-68
2022/04/18 04:58:35;;;;;;;0.70;0.70;;;5.30;99.90;;;;;;4429923;32;20134;-67
2022/04/18 05:01:01;;;;;;;2.45;0.77;;;5.20;99.90;;;;;;4432142;32;20574;-69
2022/04/18 05:03:27;;;;;;;0.30;0.30;;;5.20;99.90;;;;;;4433360;32;20077;-68
2022/04/18 05:05:53;;;;;;;6.03;0.73;;;5.30;99.90;;;;;;4432034;32;20073;-68
2022/04/18 05:08:18;;;;;;;0.75;0.75;;;5.40;99.90;;;;;;4429604;32;20455;-68
2022/04/18 05:10:44;;;;;;;0.60;0.60;;;5.50;99.90;;;;;;4430019;32;20081;-68
2022/04/18 05:13:09;;;;;;;0.40;0.40;;;5.50;99.90;;;;;;4420494;32;20073;-69
2022/04/18 05:15:35;;;;;;;0.93;0.85;;;5.50;99.90;;;;;;4422117;32;20100;-68
2022/04/18 05:18:01;;;;;;;0.50;0.50;;;5.60;99.90;;;;;;4422321;32;20094;-69
2022/04/18 05:20:27;;;;;;;0.50;0.50;;;5.70;99.90;;;;;;4430119;32;20081;-68
2022/04/18 05:22:52;;;;;;;1.50;0.80;;;5.70;99.90;;;;;;4430674;32;20160;-69
2022/04/18 05:25:18;;;;;;;1.50;0.98;;;5.90;99.90;;;;;;4429188;32;20073;-69
2022/04/18 05:27:43;;;;;;;0.88;0.55;;;6.00;99.90;;;;;;4430641;32;20118;-69
2022/04/18 05:30:09;;;;;;;3.87;1.17;;;6.20;99.90;;;;;;4433111;32;20073;-69
2022/04/18 05:32:34;;;;;;;3.17;0.45;;;6.40;99.90;;;;;;4429274;32;20135;-69
2022/04/18 05:35:00;;;;;;;0.85;0.82;;;6.40;99.90;;;;;;4427738;32;20121;-69
2022/04/18 05:37:26;;;;;;;0.60;0.60;;;6.50;99.90;;;;;;4431432;32;20086;-69
2022/04/18 05:39:51;;;;;;;1.45;0.85;;;6.60;99.90;;;;;;4430923;32;20401;-69
2022/04/18 05:42:17;;;;;;;1.25;0.73;;;6.70;99.90;;;;;;4425742;32;20073;-69
2022/04/18 05:44:42;;;;;;;0.80;0.80;;;6.90;99.90;;;;;;4428730;32;20069;-69
2022/04/18 05:47:07;;;;;;;0.60;0.60;;;7.00;99.90;;;;;;4429660;32;20431;-69
2022/04/18 05:49:33;;;;;;;0.88;0.88;;;7.10;99.90;;;;;;4430213;32;20094;-69
2022/04/18 05:51:58;;;;;;;1.33;0.77;;;7.30;99.90;;;;;;4431616;32;20093;-67
2022/04/18 05:54:24;;;;;;;2.42;1.48;;;7.40;99.90;;;;;;4431971;32;20057;-69
2022/04/18 05:56:49;;;;;;;0.55;0.55;;;7.50;99.90;;;;;;4431290;32;20077;-69
2022/04/18 05:59:15;;;;;;;2.42;0.90;;;7.60;99.90;;;;;;4431772;32;20512;-68
2022/04/18 06:01:40;;;;;;;2.05;0.90;;;7.60;99.90;;;;;;4432181;32;20510;-69
2022/04/18 06:04:06;;;;;;;0.50;0.50;;;7.60;99.90;;;;;;4429392;32;20073;-69
2022/04/18 06:06:31;;;;;;;4.68;0.95;;;7.70;99.90;;;;;;4431930;32;20127;-69
2022/04/18 06:08:58;;;;;;;2.37;0.70;;;7.70;99.90;;;;;;4429431;32;20094;-69
2022/04/18 06:11:23;;;;;;;0.50;0.50;;;7.80;99.90;;;;;;4431142;32;20422;-69
2022/04/18 06:13:49;;;;;;;0.60;0.60;;;8.00;99.90;;;;;;4420522;32;20061;-69
2022/04/18 06:16:15;;;;;;;2.58;1.08;;;8.00;99.90;;;;;;4427811;32;20081;-70
2022/04/18 06:18:40;;;;;;;1.08;0.90;;;8.00;99.90;;;;;;4431200;32;20077;-69
2022/04/18 06:21:06;;;;;;;0.50;0.50;;;8.10;99.90;;;;;;4432407;32;20069;-69
2022/04/18 06:23:32;;;;;;;0.52;0.52;;;8.20;99.90;;;;;;4429706;32;20455;-69
2022/04/18 06:25:57;;;;;;;2.33;0.95;;;8.20;99.90;;;;;;4428709;32;20542;-69
2022/04/18 06:28:23;;;;;;;0.70;0.70;;;8.30;99.90;;;;;;4430150;32;20073;-69
2022/04/18 06:30:48;;;;;;;0.60;0.60;;;8.40;99.90;;;;;;4430891;32;20175;-69
2022/04/18 06:33:15;;;;;;;7.37;1.35;;;8.50;99.90;;;;;;4433884;32;20994;-69
2022/04/18 06:35:42;;;;;;;2.47;0.82;;;8.60;99.90;;;;;;4431056;32;20540;-69
2022/04/18 06:38:07;;;;;;;5.25;1.05;;;8.70;99.90;;;;;;4429281;32;20065;-70
2022/04/18 06:40:33;;;;;;;0.80;0.73;;;8.80;99.90;;;;;;4425696;32;20073;-69
2022/04/18 06:42:59;;;;;;;0.52;0.52;;;8.90;99.90;;;;;;4423773;32;20074;-69
2022/04/18 06:45:24;;;;;;;1.67;1.23;;;9.00;99.90;;;;;;4430132;32;20077;-69
2022/04/18 06:47:50;;;;;;;0.52;0.52;;;9.00;99.90;;;;;;4433674;32;20092;-69
2022/04/18 06:50:15;;;;;;;2.53;0.88;;;9.10;99.90;;;;;;4429085;32;20073;-69
2022/04/18 06:52:46;;;;;;;0.55;0.55;;;9.10;99.90;;;;;;4429224;32;20077;-69
2022/04/18 06:55:11;;;;;;;1.35;0.65;;;9.20;99.90;;;;;;4429343;32;20062;-69
2022/04/18 06:57:36;;;;;;;0.60;0.60;;;9.30;99.90;;;;;;4431714;32;20394;-69
2022/04/18 07:00:04;;;;;;;1.62;1.27;;;9.40;99.90;;;;;;4433446;32;20064;-69
2022/04/18 07:02:30;;;;;;;4.75;1.35;;;9.30;99.90;;;;;;4431678;32;20065;-69
2022/04/18 07:04:55;;;;;;;0.80;0.80;;;9.30;99.90;;;;;;4429142;32;20085;-69
2022/04/18 07:07:21;;;;;;;3.95;0.88;;;9.30;99.90;;;;;;4429877;32;20077;-69
2022/04/18 07:09:46;;;;;;;1.33;0.82;;;9.40;99.90;;;;;;4428031;32;20086;-69
2022/04/18 07:12:12;;;;;;;0.80;0.80;;;9.50;99.90;;;;;;4423791;32;20111;-69
2022/04/18 07:14:38;;;;;;;0.50;0.50;;;9.60;99.90;;;;;;4427906;32;20073;-68
2022/04/18 07:17:05;;;;;;;0.93;0.90;;;9.60;99.90;;;;;;4432162;32;20062;-68
2022/04/18 07:19:31;;;;;;;0.88;0.65;;;9.70;99.90;;;;;;4432061;32;20077;-69
2022/04/18 07:21:57;;;;;;;6.15;1.37;;;9.80;99.90;;;;;;4430907;32;20755;-68
2022/04/18 07:24:23;;;;;;;0.50;0.50;;;10.00;99.90;;;;;;4429816;32;20076;-69
2022/04/18 07:26:48;;;;;;;0.75;0.60;;;10.20;99.90;;;;;;4431774;32;20536;-69
2022/04/18 07:29:14;;;;;;;0.40;0.40;;;10.20;99.90;;;;;;4427873;32;20116;-69
2022/04/18 07:31:39;;;;;;;0.57;0.55;;;10.10;99.90;;;;;;4431913;32;20076;-69
2022/04/18 07:34:05;;;;;;;0.60;0.60;;;10.30;99.90;;;;;;4428810;32;20070;-69
2022/04/18 07:36:30;;;;;;;0.52;0.52;;;10.40;99.90;;;;;;4430294;32;88129;-68
2022/04/18 07:38:56;;;;;;;0.60;0.60;;;10.50;99.90;;;;;;4429154;32;20124;-68
2022/04/18 07:41:25;;;;;;;4.90;0.82;;;10.50;99.90;;;;;;4429347;32;20057;-69
2022/04/18 07:43:51;;;;;;;0.90;0.50;;;10.60;99.90;;;;;;4419274;32;20442;-69
2022/04/18 07:46:18;;;;;;;0.52;0.52;;;10.80;99.90;;;;;;4429881;32;20403;-69
2022/04/18 07:48:46;;;;;;;0.47;0.47;;;10.90;99.90;;;;;;4430060;32;20168;-69
2022/04/18 07:51:43;;;;;;;0.40;0.40;;;11.10;99.90;;;;;;4430973;32;20134;-69
2022/04/18 07:53:57;;;;;;;0.45;0.45;;;11.20;99.90;;;;;;4427674;32;20065;-69
2022/04/18 07:56:23;;;;;;;0.82;0.82;;;11.30;99.90;;;;;;4430168;32;20618;-68
2022/04/18 07:58:50;;;;;;;0.30;0.30;;;11.30;99.90;;;;;;4431995;32;20080;-68
2022/04/18 08:01:16;;;;;;;0.50;0.50;;;11.40;99.90;;;;;;4428274;32;21771;-68
2022/04/18 08:03:41;;;;;;;0.40;0.40;;;11.50;99.90;;;;;;4429847;32;20058;-68
2022/04/18 08:06:07;;;;;;;0.37;0.37;;;11.60;99.90;;;;;;4430782;32;20529;-68
2022/04/18 08:08:33;;;;;;;1.10;0.98;;;11.80;99.90;;;;;;4430682;32;20123;-68
2022/04/18 08:10:59;;;;;;;1.25;0.90;;;12.00;99.90;;;;;;4426505;32;20068;-68
2022/04/18 08:13:25;;;;;;;0.60;0.60;;;12.10;99.90;;;;;;4420865;32;20081;-68
2022/04/18 08:15:51;;;;;;;0.40;0.40;;;12.30;99.90;;;;;;4428009;32;20196;-67
2022/04/18 08:18:17;;;;;;;0.40;0.40;;;12.40;99.90;;;;;;4429289;32;20561;-68
2022/04/18 08:20:42;;;;;;;0.55;0.55;;;12.30;99.50;;;;;;4427949;32;20069;-68
2022/04/18 08:23:08;;;;;;;0.50;0.50;;;12.20;99.90;;;;;;4427161;32;20313;-68
2022/04/18 08:25:33;;;;;;;0.85;0.82;;;12.30;99.90;;;;;;4429678;32;20101;-67
2022/04/18 08:27:59;;;;;;;0.50;0.50;;;12.40;99.20;;;;;;4430212;32;20053;-68
2022/04/18 08:30:24;;;;;;;1.73;0.73;;;12.60;98.70;;;;;;4431479;32;20069;-68
2022/04/18 08:32:50;;;;;;;1.00;0.65;;;12.70;98.80;;;;;;4428128;32;20172;-70
2022/04/18 08:35:16;;;;;;;0.50;0.50;;;12.80;97.90;;;;;;4429370;32;20062;-68
2022/04/18 08:37:42;;;;;;;0.90;0.62;;;12.70;96.80;;;;;;4431154;32;20089;-69
2022/04/18 08:40:10;;;;;;;2.72;0.50;;;12.80;97.20;;;;;;4428488;32;20084;-68
2022/04/18 08:42:38;;;;;;;0.40;0.40;;;12.80;96.80;;;;;;4417174;32;20505;-67
2022/04/18 08:45:07;;;;;;;0.55;0.55;;;13.00;96.70;;;;;;4430440;32;20524;-69
2022/04/18 08:52:53;;;;;;;2.08;1.10;;;13.30;95.90;;;;;;4426141;32;20096;-68
2022/04/18 08:53:08;;;;;;;0.50;0.50;;;13.40;94.60;;;;;;4422337;32;20082;-68
2022/04/18 08:55:34;;;;;;;0.32;0.32;;;13.40;93.80;;;;;;4430311;32;20073;-69
2022/04/18 08:58:00;;;;;;;1.00;0.90;;;13.50;93.50;;;;;;4429440;32;20076;-68
2022/04/18 09:00:27;;;;;;;0.40;0.40;;;13.80;92.30;;;;;;4426635;32;20073;-69
2022/04/18 09:02:53;;;;;;;0.47;0.47;;;13.80;92.10;;;;;;4430240;32;20430;-69
2022/04/18 09:05:18;;;;;;;4.47;0.50;;;13.90;92.80;;;;;;4427750;32;20127;-69
2022/04/18 09:07:56;;;;;;;0.40;0.40;;;14.00;92.60;;;;;;4427969;32;20081;-69
2022/04/18 09:10:23;;;;;;;0.40;0.40;;;14.20;92.40;;;;;;4426322;32;20541;-69
2022/04/18 09:12:50;;;;;;;0.30;0.30;;;14.50;92.00;;;;;;4422920;32;20074;-68
2022/04/18 09:15:28;;;;;;;0.40;0.40;;;14.80;91.30;;;;;;4431226;32;20639;-69
2022/04/18 09:17:53;;;;;;;0.30;0.30;;;14.80;91.40;;;;;;4428108;32;20153;-69
2022/04/18 09:20:19;;;;;;;0.30;0.30;;;14.80;91.00;;;;;;4428682;32;20131;-69
2022/04/18 09:22:46;;;;;;;0.30;0.30;;;14.90;90.60;;;;;;4430381;32;21400;-68
2022/04/18 09:25:16;;;;;;;3.25;0.60;;;14.90;88.90;;;;;;4429285;32;20538;-69
2022/04/18 09:27:53;;;;;;;0.30;0.30;;;15.10;87.30;;;;;;4430291;32;20060;-70
2022/04/18 09:30:19;;;;;;;0.50;0.50;;;14.90;88.00;;;;;;4431963;32;20573;-69
2022/04/18 09:32:57;;;;;;;0.55;0.55;;;15.10;88.60;;;;;;4430642;32;20069;-69
2022/04/18 09:35:25;;;;;;;0.40;0.40;;;15.50;89.00;;;;;;4430499;32;20524;-68
2022/04/18 09:37:53;;;;;;;0.65;0.65;;;15.70;86.70;;;;;;4432683;32;20080;-68
2022/04/18 09:40:23;;;;;;;0.77;0.77;;;15.90;87.80;;;;;;4428943;32;20090;-69
2022/04/18 09:42:52;;;;;;;0.37;0.37;;;16.00;84.50;;;;;;4422066;32;20065;-67
2022/04/18 09:45:18;;;;;;;0.40;0.40;;;16.00;82.00;;;;;;4430881;32;20545;-67
2022/04/18 09:47:52;;;;;;;0.45;0.45;;;15.80;83.80;;;;;;4430988;32;20489;-68
2022/04/18 09:51:20;;;;;;;0.40;0.40;;;15.90;84.20;;;;;;4429717;32;20061;-68
2022/04/18 09:53:08;;;;;;;0.55;0.40;;;16.00;84.70;;;;;;4423084;32;20073;-68
2022/04/18 09:55:34;;;;;;;0.43;0.43;;;16.20;83.10;;;;;;4431362;32;20125;-68
2022/04/18 09:58:02;;;;;;;0.50;0.50;;;16.40;81.10;;;;;;4431944;32;20073;-69
2022/04/18 10:00:28;;;;;;;0.30;0.30;;;16.40;83.30;;;;;;4429775;32;20119;-68
2022/04/18 10:02:54;;;;;;;0.35;0.35;;;16.60;80.80;;;;;;4429657;32;20243;-70
2022/04/18 10:05:20;;;;;;;0.60;0.60;;;16.50;79.50;;;;;;4431652;32;20073;-69
2022/04/18 10:07:48;;;;;;;0.30;0.30;;;16.60;78.10;;;;;;4431059;32;20218;-69
2022/04/18 10:10:14;;;;;;;0.40;0.40;;;16.70;77.70;;;;;;4427718;32;20496;-69
2022/04/18 10:12:39;;;;;;;0.50;0.50;;;16.90;77.80;;;;;;4421246;32;20065;-69
2022/04/18 10:15:05;;;;;;;0.40;0.40;;;17.20;76.90;;;;;;4428598;32;20116;-69
2022/04/18 10:17:32;;;;;;;0.30;0.30;;;17.30;77.70;;;;;;4431150;32;20096;-69
2022/04/18 10:20:09;;;;;;;0.30;0.30;;;17.50;72.10;;;;;;4430335;32;20090;-69
2022/04/18 10:22:51;;;;;;;0.50;0.50;;;17.70;72.50;;;;;;4430674;32;20093;-69
2022/04/18 10:25:45;;;;;;;0.37;0.37;;;17.80;73.40;;;;;;4427270;32;20093;-69
2022/04/18 10:28:16;;;;;;;0.40;0.40;;;17.70;72.40;;;;;;4408149;32;20081;-69
2022/04/18 10:30:49;;;;;;;0.43;0.43;;;17.90;73.20;;;;;;4434407;32;20115;-69
2022/04/18 10:33:17;;;;;;;0.30;0.30;;;18.10;71.70;;;;;;4428686;32;20060;-69
2022/04/18 10:35:47;;;;;;;0.40;0.40;;;18.10;73.30;;;;;;4431367;32;20485;-70
2022/04/18 10:38:13;;;;;;;0.30;0.30;;;18.20;73.30;;;;;;4431391;32;20452;-69
2022/04/18 10:40:40;;;;;;;1.98;1.15;;;18.20;73.00;;;;;;4428285;32;20084;-69
2022/04/18 10:43:09;;;;;;;0.43;0.43;;;18.30;75.80;;;;;;4421262;32;20476;-68
2022/04/18 10:45:34;;;;;;;0.45;0.45;;;18.20;74.60;;;;;;4432044;32;20111;-69
2022/04/18 10:48:09;;;;;;;1.10;0.70;;;18.50;74.30;;;;;;4430462;32;20094;-69
2022/04/18 10:50:41;;;;;;;0.50;0.50;;;18.80;73.20;;;;;;4431859;32;20098;-69
2022/04/18 10:53:10;;;;;;;0.30;0.30;;;18.40;71.90;;;;;;4427248;32;20084;-69
2022/04/18 10:55:37;;;;;;;0.40;0.40;;;18.30;74.50;;;;;;4427918;32;20065;-69
2022/04/18 10:58:13;;;;;;;0.40;0.40;;;18.40;72.30;;;;;;4428086;32;20090;-69
2022/04/18 11:00:55;;;;;;;4.62;0.57;;;18.70;71.70;;;;;;4426707;32;20085;-69
2022/04/18 11:03:43;;;;;;;0.40;0.40;;;18.90;71.30;;;;;;4428594;32;20061;-69
2022/04/18 11:06:32;;;;;;;0.55;0.55;;;19.20;71.80;;;;;;4422799;32;20565;-69
2022/04/18 11:09:00;;;;;;;0.40;0.40;;;19.40;69.00;;;;;;4424041;32;20085;-69
2022/04/18 11:11:48;;;;;;;0.30;0.30;;;19.80;68.50;;;;;;4426428;32;20082;-69
2022/04/18 11:14:40;;;;;;;0.45;0.45;;;19.70;68.90;;;;;;4424505;32;20081;-69
2022/04/18 11:17:09;;;;;;;0.37;0.37;;;19.80;67.50;;;;;;4426982;32;20480;-69
2022/04/18 11:19:37;;;;;;;0.30;0.30;;;20.00;69.30;;;;;;4433738;32;20567;-68
2022/04/18 11:22:08;;;;;;;0.32;0.32;;;20.60;64.90;;;;;;4429168;32;20082;-68
2022/04/18 11:24:52;;;;;;;0.60;0.60;;;20.50;64.50;;;;;;4428505;32;20109;-68
2022/04/18 11:27:23;;;;;;;0.40;0.40;;;20.20;64.50;;;;;;4428024;32;20084;-70
2022/04/18 11:29:59;;;;;;;0.40;0.40;;;20.00;66.40;;;;;;4429151;32;20620;-70
2022/04/18 11:32:28;;;;;;;0.30;0.30;;;20.20;64.70;;;;;;4429184;32;20073;-69
2022/04/18 11:34:56;;;;;;;0.40;0.40;;;20.60;63.80;;;;;;4429298;32;20080;-69
2022/04/18 11:37:40;;;;;;;0.30;0.30;;;20.50;63.20;;;;;;4432770;32;20128;-69
2022/04/18 11:40:11;;;;;;;0.52;0.47;;;20.70;60.70;;;;;;4421500;32;20073;-69
2022/04/18 11:42:37;;;;;;;;;;;20.90;61.70;;;;;;4418695;32;20243;-69
2022/04/18 11:45:05;;;;;;;0.37;0.30;;;21.00;62.20;;;;;;4430878;32;19964;-69
2022/04/18 11:47:37;;;;;;;0.65;0.65;;;21.10;60.80;;;;;;4429588;32;20053;-69
2022/04/18 11:50:04;;;;;;;0.30;0.30;;;21.40;59.30;;;;;;4428887;32;20085;-69
2022/04/18 11:52:33;;;;;;;0.30;0.30;;;20.90;58.00;;;;;;4431410;32;20102;-69
2022/04/18 11:55:04;;;;;;;0.30;0.30;;;20.80;59.30;;;;;;4428453;32;20092;-69
2022/04/18 11:57:32;;;;;;;0.30;0.30;;;21.20;57.90;;;;;;4431722;32;20068;-69
2022/04/18 11:59:58;;;;;;;0.32;0.32;;;21.30;59.20;;;;;;4431780;32;20093;-69
2022/04/18 12:06:46;;;;;;;0.22;0.22;;;21.80;58.90;;;;;;4419356;32;20072;-69
2022/04/18 12:08:02;;;;;;;0.30;0.30;;;22.00;58.00;;;;;;4421646;32;20081;-69
2022/04/18 12:10:31;;;;;;;0.20;0.20;;;21.90;57.20;;;;;;4429506;32;20093;-69
2022/04/18 12:12:59;;;;;;;1.55;0.73;;;22.20;56.60;;;;;;4418174;32;20062;-69
2022/04/18 12:15:26;;;;;;;0.98;0.50;;;22.30;58.40;;;;;;4430705;32;20178;-69
2022/04/18 12:17:53;;;;;;;0.20;0.20;;;22.00;57.00;;;;;;4430308;32;20520;-69
2022/04/18 12:20:25;;;;;;;0.20;0.20;;;21.80;59.50;;;;;;4428083;32;20089;-69
2022/04/18 12:22:53;;;;;;;0.40;0.40;;;22.30;57.20;;;;;;4426263;32;20089;-69
2022/04/18 12:25:22;;;;;;;1.12;0.57;;;22.30;56.00;;;;;;4430711;32;20532;-69
2022/04/18 12:27:48;;;;;;;0.10;0.10;;;22.30;55.70;;;;;;4428977;32;20096;-69
2022/04/18 12:30:14;;;;;;;0.20;0.20;;;22.50;57.00;;;;;;4428303;32;20128;-69
2022/04/18 12:32:41;;;;;;;0.15;0.15;;;22.50;57.10;;;;;;4428758;32;20437;-69
2022/04/18 12:35:07;;;;;;;0.17;0.17;;;23.00;55.60;;;;;;4431508;32;20057;-69
2022/04/18 12:37:33;;;;;;;0.55;0.55;;;22.80;56.10;;;;;;4428417;32;20525;-69
2022/04/18 12:40:16;;;;;;;0.30;0.30;;;22.80;55.70;;;;;;4431113;32;20543;-69
2022/04/18 12:42:50;;;;;;;4.43;0.82;;;22.60;57.50;;;;;;4411395;32;20125;-68
2022/04/18 12:45:16;;;;;;;0.20;0.20;;;22.70;55.20;;;;;;4430426;32;20124;-69
2022/04/18 12:47:41;;;;;;;0.20;0.20;;;22.90;56.70;;;;;;4428770;32;20090;-69
2022/04/18 12:50:10;;;;;;;0.20;0.20;;;23.40;54.90;;;;;;4430507;32;20599;-69
2022/04/18 12:52:51;;;;;;;0.17;0.17;;;23.60;55.50;;;;;;4427902;32;20261;-69
2022/04/18 12:55:32;;;;;;;0.20;0.20;;;23.70;54.00;;;;;;4430460;32;20132;-69
2022/04/18 12:57:58;;;;;;;0.10;0.10;;;24.10;54.00;;;;;;4430230;32;20480;-69
2022/04/18 13:00:32;;;;;;;0.32;0.28;;;24.30;54.20;;;;;;4430968;32;20070;-69
2022/04/18 13:03:01;;;;;;;0.10;0.10;;;24.10;53.80;;;;;;4430872;32;20077;-69